createdAt,value
2018-12-15T00:01:16.988Z,1.80
2018-12-15T00:03:46.445Z,1.80
2018-12-15T00:06:15.310Z,1.80
2018-12-15T00:08:44.624Z,1.70
2018-12-15T00:11:13.587Z,1.70
2018-12-15T00:13:42.616Z,1.70
2018-12-15T00:16:11.609Z,1.80
2018-12-15T00:18:40.553Z,1.80
2018-12-15T00:21:09.481Z,1.90
2018-12-15T00:23:38.443Z,1.90
2018-12-15T00:26:08.198Z,1.90
2018-12-15T00:28:37.221Z,1.90
2018-12-15T00:31:06.607Z,1.80
2018-12-15T00:33:36.066Z,1.70
2018-12-15T00:36:05.863Z,1.70
2018-12-15T00:38:35.610Z,1.70
2018-12-15T00:41:05.491Z,1.70
2018-12-15T00:43:34.696Z,1.80
2018-12-15T00:46:03.820Z,1.80
2018-12-15T00:48:33.304Z,1.80
2018-12-15T00:51:04.062Z,1.80
2018-12-15T00:53:33.163Z,1.80
2018-12-15T00:56:02.026Z,1.80
2018-12-15T00:58:32.953Z,1.80
2018-12-15T01:01:01.898Z,1.70
2018-12-15T01:03:30.795Z,1.70
2018-12-15T01:05:59.766Z,1.60
2018-12-15T01:08:28.671Z,1.60
2018-12-15T01:10:59.875Z,1.50
2018-12-15T01:13:28.757Z,1.50
2018-12-15T01:15:58.013Z,1.60
2018-12-15T01:18:27.136Z,1.50
2018-12-15T01:20:56.285Z,1.50
2018-12-15T01:23:25.221Z,1.50
2018-12-15T01:25:54.063Z,1.50
2018-12-15T01:28:23.428Z,1.50
2018-12-15T01:30:52.322Z,1.50
2018-12-15T01:33:21.395Z,1.50
2018-12-15T01:35:50.674Z,1.50
2018-12-15T01:38:19.572Z,1.50
2018-12-15T01:40:49.228Z,1.40
2018-12-15T01:43:18.875Z,1.40
2018-12-15T01:45:47.801Z,1.40
2018-12-15T01:48:16.679Z,1.50
2018-12-15T01:50:45.570Z,1.40
2018-12-15T01:53:14.449Z,1.40
2018-12-15T01:55:43.895Z,1.40
2018-12-15T01:58:12.735Z,1.30
2018-12-15T02:00:41.651Z,1.40
2018-12-15T02:03:10.559Z,1.30
2018-12-15T02:05:39.607Z,1.30
2018-12-15T02:08:10.169Z,1.30
2018-12-15T02:10:39.138Z,1.30
2018-12-15T02:13:08.034Z,1.30
2018-12-15T02:15:36.972Z,1.30
2018-12-15T02:18:05.850Z,1.20
2018-12-15T02:20:34.970Z,1.20
2018-12-15T02:23:03.870Z,1.20
2018-12-15T02:25:33.458Z,1.20
2018-12-15T02:28:02.377Z,1.20
2018-12-15T02:30:31.843Z,1.30
2018-12-15T02:33:00.701Z,1.30
2018-12-15T02:35:31.482Z,1.30
2018-12-15T02:38:00.417Z,1.30
2018-12-15T02:40:29.803Z,1.30
2018-12-15T02:42:59.068Z,1.30
2018-12-15T02:45:27.991Z,1.30
2018-12-15T02:47:57.010Z,1.30
2018-12-15T02:50:26.603Z,1.20
2018-12-15T02:52:55.484Z,1.20
2018-12-15T02:55:25.045Z,1.20
2018-12-15T02:57:54.175Z,1.20
2018-12-15T03:00:23.212Z,1.20
2018-12-15T03:02:53.027Z,1.10
2018-12-15T03:05:23.480Z,1.00
2018-12-15T03:07:52.428Z,1.00
2018-12-15T03:10:21.362Z,1.10
2018-12-15T03:12:50.292Z,1.10
2018-12-15T03:15:19.246Z,1.20
2018-12-15T03:17:49.043Z,1.20
2018-12-15T03:20:18.760Z,1.20
2018-12-15T03:22:48.762Z,1.20
2018-12-15T03:25:17.643Z,1.10
2018-12-15T03:27:46.616Z,1.10
2018-12-15T03:30:16.334Z,1.10
2018-12-15T03:32:45.691Z,1.20
2018-12-15T03:35:14.619Z,1.10
2018-12-15T03:37:44.403Z,1.20
2018-12-15T03:40:13.297Z,1.20
2018-12-15T03:42:43.392Z,1.20
2018-12-15T03:45:12.340Z,1.20
2018-12-15T03:47:42.097Z,1.10
2018-12-15T03:50:10.997Z,1.10
2018-12-15T03:52:39.907Z,1.10
2018-12-15T03:55:08.762Z,1.00
2018-12-15T03:57:37.716Z,1.00
2018-12-15T04:00:06.730Z,1.10
2018-12-15T04:02:36.251Z,1.10
2018-12-15T04:05:05.889Z,1.00
2018-12-15T04:07:36.031Z,0.90
2018-12-15T04:10:06.821Z,1.00
2018-12-15T04:12:35.826Z,1.00
2018-12-15T04:15:05.369Z,1.10
2018-12-15T04:17:34.214Z,1.10
2018-12-15T04:20:04.137Z,1.10
2018-12-15T04:22:33.136Z,1.10
2018-12-15T04:25:02.021Z,1.10
2018-12-15T04:27:30.929Z,1.10
2018-12-15T04:29:59.895Z,1.10
2018-12-15T04:32:28.740Z,1.10
2018-12-15T04:34:57.993Z,1.10
2018-12-15T04:37:26.824Z,1.10
2018-12-15T04:39:56.221Z,1.20
2018-12-15T04:42:25.771Z,1.30
2018-12-15T04:44:54.729Z,1.20
2018-12-15T04:47:23.925Z,1.20
2018-12-15T04:49:52.894Z,1.20
2018-12-15T04:52:22.386Z,1.30
2018-12-15T04:54:52.233Z,1.20
2018-12-15T04:57:21.152Z,1.30
2018-12-15T04:59:50.032Z,1.20
2018-12-15T05:02:18.946Z,1.30
2018-12-15T05:04:48.398Z,1.30
2018-12-15T05:07:17.266Z,1.30
2018-12-15T05:09:46.210Z,1.30
2018-12-15T05:12:15.083Z,1.30
2018-12-15T05:14:43.961Z,1.30
2018-12-15T05:17:13.449Z,1.30
2018-12-15T05:19:46.964Z,1.30
2018-12-15T05:22:15.884Z,1.30
2018-12-15T05:24:46.000Z,1.30
2018-12-15T05:27:15.764Z,1.30
2018-12-15T05:29:45.098Z,1.30
2018-12-15T05:32:14.332Z,1.30
2018-12-15T05:34:43.602Z,1.30
2018-12-15T05:37:12.462Z,1.40
2018-12-15T05:39:41.796Z,1.30
2018-12-15T05:42:10.691Z,1.30
2018-12-15T05:44:40.707Z,1.40
2018-12-15T05:47:09.809Z,1.30
2018-12-15T05:49:38.683Z,1.40
2018-12-15T05:52:08.636Z,1.30
2018-12-15T05:54:37.486Z,1.30
2018-12-15T05:57:06.380Z,1.30
2018-12-15T05:59:36.707Z,1.40
2018-12-15T06:02:07.652Z,1.40
2018-12-15T06:04:36.648Z,1.40
2018-12-15T06:07:05.611Z,1.40
2018-12-15T06:09:34.770Z,1.40
2018-12-15T06:12:03.829Z,1.30
2018-12-15T06:14:39.557Z,1.40
2018-12-15T06:17:14.057Z,1.40
2018-12-15T06:19:48.977Z,1.50
2018-12-15T06:22:17.946Z,1.50
2018-12-15T06:24:46.843Z,1.50
2018-12-15T06:27:15.882Z,1.50
2018-12-15T06:29:51.796Z,1.50
2018-12-15T06:32:26.505Z,1.40
2018-12-15T06:34:59.194Z,1.40
2018-12-15T06:37:31.533Z,1.30
2018-12-15T06:40:07.597Z,1.30
2018-12-15T06:42:42.758Z,1.40
2018-12-15T06:45:17.547Z,1.40
2018-12-15T06:47:47.225Z,1.40
2018-12-15T06:50:22.293Z,1.40
2018-12-15T06:53:03.191Z,1.40
2018-12-15T06:55:32.280Z,1.40
2018-12-15T06:58:07.110Z,1.50
2018-12-15T07:00:39.847Z,1.50
2018-12-15T07:03:08.891Z,1.60
2018-12-15T07:05:37.773Z,1.60
2018-12-15T07:08:06.777Z,1.60
2018-12-15T07:10:35.654Z,1.60
2018-12-15T07:13:04.516Z,1.60
2018-12-15T07:15:33.398Z,1.60
2018-12-15T07:18:02.230Z,1.60
2018-12-15T07:20:31.173Z,1.70
2018-12-15T07:23:00.150Z,1.70
2018-12-15T07:25:29.129Z,1.70
2018-12-15T07:27:58.063Z,1.70
2018-12-15T07:30:27.381Z,1.60
2018-12-15T07:32:56.729Z,1.60
2018-12-15T07:35:25.588Z,1.60
2018-12-15T07:37:54.484Z,1.60
2018-12-15T07:40:23.397Z,1.60
2018-12-15T07:42:52.685Z,1.60
2018-12-15T07:45:21.550Z,1.60
2018-12-15T07:47:50.467Z,1.70
2018-12-15T07:50:19.338Z,1.70
2018-12-15T07:52:48.305Z,1.80
2018-12-15T07:55:17.218Z,1.80
2018-12-15T07:57:46.114Z,1.90
2018-12-15T08:00:15.124Z,2.00
2018-12-15T08:02:43.994Z,2.10
2018-12-15T08:05:12.968Z,2.20
2018-12-15T08:07:42.118Z,2.30
2018-12-15T08:10:11.097Z,2.50
2018-12-15T08:12:43.075Z,2.60
2018-12-15T08:15:11.938Z,2.80
2018-12-15T08:17:42.798Z,2.90
2018-12-15T08:20:11.771Z,2.90
2018-12-15T08:22:40.729Z,3.00
2018-12-15T08:25:09.641Z,3.10
2018-12-15T08:27:38.484Z,3.30
2018-12-15T08:30:09.569Z,3.40
2018-12-15T08:32:38.738Z,3.50
2018-12-15T08:35:07.794Z,3.50
2018-12-15T08:37:36.655Z,3.60
2018-12-15T08:40:06.009Z,3.60
2018-12-15T08:42:34.900Z,3.60
2018-12-15T08:45:03.769Z,3.50
2018-12-15T08:47:32.729Z,3.40
2018-12-15T08:50:01.589Z,3.30
2018-12-15T08:52:30.436Z,3.20
2018-12-15T08:54:59.310Z,3.20
2018-12-15T08:57:28.226Z,3.30
2018-12-15T08:59:57.061Z,3.40
2018-12-15T09:02:25.978Z,3.50
2018-12-15T09:04:54.837Z,4.00
2018-12-15T09:07:23.706Z,4.60
2018-12-15T09:09:52.563Z,5.10
2018-12-15T09:12:21.470Z,5.20
2018-12-15T09:14:50.377Z,5.00
2018-12-15T09:17:19.226Z,4.70
2018-12-15T09:19:48.198Z,4.40
2018-12-15T09:22:17.267Z,4.20
2018-12-15T09:24:46.123Z,3.90
2018-12-15T09:27:14.957Z,3.70
2018-12-15T09:29:43.868Z,3.60
2018-12-15T09:32:12.722Z,3.60
2018-12-15T09:34:41.688Z,3.70
2018-12-15T09:37:10.558Z,3.70
2018-12-15T09:39:39.429Z,3.60
2018-12-15T09:42:08.309Z,3.50
2018-12-15T09:44:37.161Z,3.30
2018-12-15T09:47:06.028Z,3.10
2018-12-15T09:49:34.931Z,2.80
2018-12-15T09:52:03.810Z,2.60
2018-12-15T09:54:32.817Z,2.40
2018-12-15T09:57:01.825Z,2.40
2018-12-15T09:59:30.894Z,2.40
2018-12-15T10:01:59.741Z,2.50
2018-12-15T10:04:28.906Z,2.60
2018-12-15T10:06:57.872Z,2.70
2018-12-15T10:09:26.768Z,2.80
2018-12-15T10:11:55.642Z,2.90
2018-12-15T10:14:24.542Z,3.10
2018-12-15T10:16:53.453Z,3.30
2018-12-15T10:19:24.490Z,3.50
2018-12-15T10:21:53.848Z,3.50
2018-12-15T10:24:28.857Z,3.50
2018-12-15T10:27:01.725Z,3.40
2018-12-15T10:29:48.192Z,3.30
2018-12-15T10:32:22.402Z,3.10
2018-12-15T10:34:51.441Z,2.80
2018-12-15T10:37:20.988Z,2.50
2018-12-15T10:39:49.939Z,2.30
2018-12-15T10:42:18.834Z,2.30
2018-12-15T10:44:48.553Z,2.40
2018-12-15T10:47:17.480Z,2.50
2018-12-15T10:49:48.172Z,2.60
2018-12-15T10:52:17.252Z,2.70
2018-12-15T10:54:46.180Z,2.80
2018-12-15T10:57:15.796Z,3.00
2018-12-15T10:59:45.174Z,3.10
2018-12-15T11:02:14.068Z,3.20
2018-12-15T11:04:48.851Z,3.30
2018-12-15T11:07:17.797Z,3.40
2018-12-15T11:09:46.884Z,3.50
2018-12-15T11:12:16.034Z,3.50
2018-12-15T11:14:44.921Z,3.60
2018-12-15T11:17:13.798Z,3.60
2018-12-15T11:19:42.783Z,3.60
2018-12-15T11:22:12.201Z,3.50
2018-12-15T11:24:41.169Z,3.40
2018-12-15T11:27:10.278Z,3.50
2018-12-15T11:29:39.207Z,3.50
2018-12-15T11:32:08.145Z,3.50
2018-12-15T11:34:37.331Z,3.50
2018-12-15T11:37:06.274Z,3.50
2018-12-15T11:39:35.521Z,3.50
2018-12-15T11:42:04.494Z,3.50
2018-12-15T11:44:33.458Z,3.50
2018-12-15T11:47:02.441Z,3.40
2018-12-15T11:49:31.514Z,3.40
2018-12-15T11:52:00.425Z,3.40
2018-12-15T11:54:29.380Z,3.30
2018-12-15T11:56:58.391Z,3.30
2018-12-15T11:59:27.286Z,3.30
2018-12-15T12:01:56.308Z,3.30
2018-12-15T12:04:25.306Z,3.30
2018-12-15T12:06:54.302Z,3.30
2018-12-15T12:09:23.298Z,3.30
2018-12-15T12:11:52.342Z,3.30
2018-12-15T12:14:21.275Z,3.20
2018-12-15T12:16:50.142Z,3.10
2018-12-15T12:19:19.070Z,3.00
2018-12-15T12:21:48.063Z,3.00
2018-12-15T12:24:16.972Z,3.10
2018-12-15T12:26:45.982Z,3.10
2018-12-15T12:29:14.957Z,3.20
2018-12-15T12:31:43.885Z,3.10
2018-12-15T12:34:12.898Z,3.10
2018-12-15T12:36:42.710Z,3.10
2018-12-15T12:39:11.607Z,3.00
2018-12-15T12:41:40.567Z,3.00
2018-12-15T12:44:10.327Z,3.00
2018-12-15T12:46:39.194Z,3.00
2018-12-15T12:49:08.147Z,3.00
2018-12-15T12:51:37.122Z,3.00
2018-12-15T12:54:05.982Z,3.10
2018-12-15T12:56:34.931Z,3.10
2018-12-15T12:59:03.966Z,3.10
2018-12-15T13:01:34.359Z,3.10
2018-12-15T13:04:03.713Z,3.00
2018-12-15T13:06:32.688Z,2.90
2018-12-15T13:09:01.692Z,2.80
2018-12-15T13:11:31.217Z,2.70
2018-12-15T13:14:00.223Z,2.60
2018-12-15T13:16:30.330Z,2.50
2018-12-15T13:18:59.235Z,2.50
2018-12-15T13:21:28.091Z,2.50
2018-12-15T13:23:56.994Z,2.50
2018-12-15T13:26:25.914Z,2.50
2018-12-15T13:28:55.020Z,2.50
2018-12-15T13:31:24.065Z,2.40
2018-12-15T13:33:52.998Z,2.50
2018-12-15T13:36:22.510Z,2.50
2018-12-15T13:38:51.626Z,2.40
2018-12-15T13:41:20.602Z,2.40
2018-12-15T13:43:49.830Z,2.40
2018-12-15T13:46:18.831Z,2.40
2018-12-15T13:48:47.688Z,2.30
2018-12-15T13:51:16.902Z,2.30
2018-12-15T13:53:45.965Z,2.30
2018-12-15T13:56:14.910Z,2.30
2018-12-15T13:58:44.715Z,2.20
2018-12-15T14:01:13.560Z,2.20
2018-12-15T14:03:42.726Z,2.10
2018-12-15T14:06:11.726Z,2.10
2018-12-15T14:08:40.686Z,2.10
2018-12-15T14:11:09.571Z,2.00
2018-12-15T14:13:38.491Z,1.90
2018-12-15T14:16:07.442Z,1.80
2018-12-15T14:18:36.462Z,1.70
2018-12-15T14:21:05.342Z,1.60
2018-12-15T14:23:34.232Z,1.60
2018-12-15T14:26:05.341Z,1.50
2018-12-15T14:28:34.364Z,1.60
2018-12-15T14:31:03.258Z,1.50
2018-12-15T14:33:32.294Z,1.40
2018-12-15T14:36:01.234Z,1.30
2018-12-15T14:38:30.590Z,1.20
2018-12-15T14:40:59.482Z,1.00
2018-12-15T14:43:28.419Z,1.00
2018-12-15T14:45:57.922Z,1.00
2018-12-15T14:48:27.322Z,0.90
2018-12-15T14:50:56.270Z,0.80
2018-12-15T14:53:25.614Z,0.80
2018-12-15T14:55:56.167Z,0.70
2018-12-15T14:58:25.358Z,0.70
2018-12-15T15:00:54.254Z,0.70
2018-12-15T15:03:23.194Z,0.60
2018-12-15T15:05:52.085Z,0.60
2018-12-15T15:08:21.026Z,0.60
2018-12-15T15:10:49.922Z,0.60
2018-12-15T15:13:18.834Z,0.60
2018-12-15T15:15:47.830Z,0.60
2018-12-15T15:18:16.774Z,0.50
2018-12-15T15:21:01.450Z,0.50
2018-12-15T15:23:30.354Z,0.50
2018-12-15T15:25:59.708Z,0.50
2018-12-15T15:28:28.906Z,0.50
2018-12-15T15:30:57.903Z,0.60
2018-12-15T15:33:26.870Z,0.50
2018-12-15T15:35:55.862Z,0.50
2018-12-15T15:38:25.381Z,0.40
2018-12-15T15:40:54.467Z,0.50
2018-12-15T15:43:23.368Z,0.50
2018-12-15T15:45:52.396Z,0.50
2018-12-15T15:48:21.259Z,0.50
2018-12-15T15:50:51.437Z,0.40
2018-12-15T15:53:20.322Z,0.30
2018-12-15T15:55:49.727Z,0.30
2018-12-15T15:58:18.565Z,0.40
2018-12-15T16:00:47.405Z,0.40
2018-12-15T16:03:16.296Z,0.50
2018-12-15T16:05:45.295Z,0.40
2018-12-15T16:08:14.177Z,0.50
2018-12-15T16:10:43.073Z,0.50
2018-12-15T16:13:12.199Z,0.50
2018-12-15T16:15:41.996Z,0.50
2018-12-15T16:18:12.134Z,0.50
2018-12-15T16:20:43.288Z,0.50
2018-12-15T16:23:12.178Z,0.50
2018-12-15T16:25:41.194Z,0.40
2018-12-15T16:28:10.112Z,0.50
2018-12-15T16:30:38.992Z,0.40
2018-12-15T16:33:08.013Z,0.40
2018-12-15T16:35:36.977Z,0.40
2018-12-15T16:38:05.890Z,0.40
2018-12-15T16:40:35.017Z,0.30
2018-12-15T16:43:04.088Z,0.40
2018-12-15T16:45:33.058Z,0.30
2018-12-15T16:48:03.186Z,0.30
2018-12-15T16:50:32.183Z,0.30
2018-12-15T16:53:01.307Z,0.20
2018-12-15T16:55:30.217Z,0.20
2018-12-15T16:57:59.205Z,0.20
2018-12-15T17:00:28.270Z,0.20
2018-12-15T17:02:57.298Z,0.20
2018-12-15T17:05:26.189Z,0.20
2018-12-15T17:07:55.098Z,0.20
2018-12-15T17:10:24.086Z,0.20
2018-12-15T17:12:53.117Z,0.20
2018-12-15T17:15:22.098Z,0.20
2018-12-15T17:17:51.068Z,0.20
2018-12-15T17:20:20.012Z,0.20
2018-12-15T17:22:48.977Z,0.20
2018-12-15T17:25:18.480Z,0.20
2018-12-15T17:27:47.487Z,0.20
2018-12-15T17:30:16.450Z,0.10
2018-12-15T17:32:45.456Z,0.10
2018-12-15T17:35:14.420Z,0.20
2018-12-15T17:37:43.374Z,0.20
2018-12-15T17:40:12.562Z,0.20
2018-12-15T17:42:42.281Z,0.20
2018-12-15T17:45:11.298Z,0.30
2018-12-15T17:47:40.239Z,0.40
2018-12-15T17:50:10.427Z,0.50
2018-12-15T17:52:39.370Z,0.60
2018-12-15T17:55:08.581Z,0.60
2018-12-15T17:57:37.536Z,0.60
2018-12-15T18:00:09.173Z,0.70
2018-12-15T18:02:38.186Z,0.70
2018-12-15T18:05:07.498Z,0.70
2018-12-15T18:07:36.438Z,0.70
2018-12-15T18:10:06.964Z,0.70
2018-12-15T18:12:36.297Z,0.70
2018-12-15T18:15:06.482Z,0.70
2018-12-15T18:17:35.401Z,0.80
2018-12-15T18:20:04.807Z,0.80
2018-12-15T18:22:33.746Z,0.80
2018-12-15T18:25:02.662Z,0.70
2018-12-15T18:27:31.626Z,0.70
2018-12-15T18:30:00.547Z,0.70
2018-12-15T18:32:29.523Z,0.70
2018-12-15T18:34:58.428Z,0.60
2018-12-15T18:37:27.398Z,0.60
2018-12-15T18:39:56.386Z,0.60
2018-12-15T18:42:25.374Z,0.60
2018-12-15T18:44:54.318Z,0.60
2018-12-15T18:47:23.264Z,0.60
2018-12-15T18:49:52.214Z,0.70
2018-12-15T18:52:21.277Z,0.80
2018-12-15T18:54:50.241Z,0.80
2018-12-15T18:57:19.191Z,0.80
2018-12-15T18:59:48.130Z,0.90
2018-12-15T19:02:17.138Z,0.90
2018-12-15T19:04:46.107Z,0.90
2018-12-15T19:07:15.068Z,1.10
2018-12-15T19:09:44.078Z,1.10
2018-12-15T19:12:13.006Z,1.10
2018-12-15T19:14:42.374Z,1.20
2018-12-15T19:17:11.330Z,1.10
2018-12-15T19:19:41.154Z,1.10
2018-12-15T19:22:10.163Z,1.20
2018-12-15T19:24:39.282Z,1.20
2018-12-15T19:27:08.462Z,1.20
2018-12-15T19:29:37.435Z,1.20
2018-12-15T19:32:06.355Z,1.30
2018-12-15T19:34:36.254Z,1.30
2018-12-15T19:37:05.183Z,1.30
2018-12-15T19:39:34.136Z,1.40
2018-12-15T19:42:03.854Z,1.40
2018-12-15T19:44:32.980Z,1.40
2018-12-15T19:47:01.921Z,1.40
2018-12-15T19:49:30.854Z,1.40
2018-12-15T19:51:59.912Z,1.50
2018-12-15T19:54:29.004Z,1.40
2018-12-15T19:56:58.123Z,1.50
2018-12-15T19:59:27.057Z,1.40
2018-12-15T20:01:56.881Z,1.30
2018-12-15T20:04:25.932Z,1.30
2018-12-15T20:06:54.928Z,1.40
2018-12-15T20:09:24.002Z,1.40
2018-12-15T20:11:52.978Z,1.30
2018-12-15T20:14:21.864Z,1.30
2018-12-15T20:16:50.850Z,1.30
2018-12-15T20:19:19.818Z,1.30
2018-12-15T20:21:48.801Z,1.20
2018-12-15T20:24:17.783Z,1.20
2018-12-15T20:26:46.813Z,1.20
2018-12-15T20:29:15.679Z,1.20
2018-12-15T20:31:44.644Z,1.20
2018-12-15T20:34:13.708Z,1.20
2018-12-15T20:36:42.694Z,1.30
2018-12-15T20:39:11.810Z,1.20
2018-12-15T20:41:40.679Z,1.10
2018-12-15T20:44:10.423Z,1.10
2018-12-15T20:46:39.410Z,1.00
2018-12-15T20:49:08.445Z,1.00
2018-12-15T20:51:42.779Z,1.00
2018-12-15T20:54:08.399Z,0.90
2018-12-15T20:56:37.371Z,1.00
2018-12-15T20:59:06.310Z,1.00
2018-12-15T21:01:35.445Z,1.00
2018-12-15T21:04:04.390Z,0.90
2018-12-15T21:06:33.432Z,0.90
2018-12-15T21:09:02.630Z,0.90
2018-12-15T21:11:31.491Z,0.90
2018-12-15T21:14:00.408Z,0.90
2018-12-15T21:16:29.459Z,0.90
2018-12-15T21:18:58.494Z,0.90
2018-12-15T21:21:27.554Z,0.80
2018-12-15T21:23:56.480Z,0.80
2018-12-15T21:26:25.551Z,0.80
2018-12-15T21:28:55.529Z,0.80
2018-12-15T21:31:24.434Z,0.90
2018-12-15T21:33:53.518Z,0.90
2018-12-15T21:36:22.598Z,0.80
2018-12-15T21:38:51.558Z,0.80
2018-12-15T21:41:20.498Z,0.70
2018-12-15T21:43:49.407Z,0.80
2018-12-15T21:46:18.414Z,0.80
2018-12-15T21:48:47.654Z,0.80
2018-12-15T21:51:16.595Z,0.80
2018-12-15T21:53:45.587Z,0.70
2018-12-15T21:56:14.735Z,0.80
2018-12-15T21:58:43.619Z,0.80
2018-12-15T22:01:12.587Z,0.80
2018-12-15T22:03:41.564Z,0.80
2018-12-15T22:06:10.506Z,0.80
2018-12-15T22:08:39.673Z,0.80
2018-12-15T22:11:08.734Z,0.80
2018-12-15T22:13:37.812Z,0.80
2018-12-15T22:16:06.769Z,0.80
2018-12-15T22:18:35.875Z,0.80
2018-12-15T22:21:04.909Z,0.80
2018-12-15T22:23:33.811Z,0.80
2018-12-15T22:26:02.813Z,0.90
2018-12-15T22:28:31.736Z,0.80
2018-12-15T22:31:00.951Z,0.90
2018-12-15T22:33:30.042Z,0.90
2018-12-15T22:36:00.052Z,1.00
2018-12-15T22:38:29.926Z,0.90
2018-12-15T22:40:58.984Z,0.90
2018-12-15T22:43:28.082Z,0.80
2018-12-15T22:45:57.269Z,0.80
2018-12-15T22:48:26.205Z,0.90
2018-12-15T22:50:55.139Z,0.90
2018-12-15T22:53:24.083Z,0.90
2018-12-15T22:55:53.027Z,0.90
2018-12-15T22:58:21.975Z,0.90
2018-12-15T23:00:56.655Z,0.90
2018-12-15T23:03:25.703Z,0.80
2018-12-15T23:05:54.651Z,0.90
2018-12-15T23:08:23.511Z,0.80
2018-12-15T23:10:52.476Z,0.80
2018-12-15T23:13:21.478Z,0.70
2018-12-15T23:15:50.486Z,0.80
2018-12-15T23:18:19.549Z,0.80
2018-12-15T23:20:48.688Z,0.80
2018-12-15T23:23:17.755Z,0.80
2018-12-15T23:25:50.702Z,0.80
2018-12-15T23:28:25.355Z,0.90
2018-12-15T23:30:54.397Z,0.90
2018-12-15T23:33:23.356Z,0.90
2018-12-15T23:35:52.420Z,0.90
2018-12-15T23:38:21.387Z,0.80
2018-12-15T23:40:50.359Z,0.80
2018-12-15T23:43:19.271Z,0.80
2018-12-15T23:45:48.307Z,0.70
2018-12-15T23:48:17.409Z,0.70
2018-12-15T23:50:46.386Z,0.70
2018-12-15T23:53:15.344Z,0.70
2018-12-15T23:55:44.245Z,0.70
2018-12-15T23:58:13.271Z,0.70
